sensor_id;sensor_type;location;lat;lon;timestamp;pressure;altitude;pressure_sealevel;temperature;humidity
21869;BME280;11099;41.564;23.296;2022-10-16T00:02:11;98181.66;;;13.26;nan
21869;BME280;11099;41.564;23.296;2022-10-16T00:04:50;98217.75;;;13.37;nan
21869;BME280;11099;41.564;23.296;2022-10-16T00:07:28;98224.47;;;13.35;nan
21869;BME280;11099;41.564;23.296;2022-10-16T00:10:02;98170.75;;;12.91;nan
21869;BME280;11099;41.564;23.296;2022-10-16T02:48:34;60703.47;;;-143.80;100.00
21869;BME280;11099;41.564;23.296;2022-10-16T02:51:48;60703.47;;;-143.80;100.00
21869;BME280;11099;41.564;23.296;2022-10-16T02:54:22;60703.47;;;-143.80;100.00
21869;BME280;11099;41.564;23.296;2022-10-16T02:57:12;60703.47;;;-143.80;100.00
21869;BME280;11099;41.564;23.296;2022-10-16T03:23:53;60703.47;;;64.85;100.00
21869;BME280;11099;41.564;23.296;2022-10-16T03:45:13;60703.47;;;-143.80;100.00
21869;BME280;11099;41.564;23.296;2022-10-16T03:47:40;60703.47;;;-143.80;100.00
21869;BME280;11099;41.564;23.296;2022-10-16T03:52:47;60703.47;;;-143.80;100.00
21869;BME280;11099;41.564;23.296;2022-10-16T03:55:22;60703.47;;;-143.80;100.00
21869;BME280;11099;41.564;23.296;2022-10-16T03:57:51;60703.47;;;-143.80;100.00
21869;BME280;11099;41.564;23.296;2022-10-16T04:00:23;60703.47;;;-143.80;100.00
21869;BME280;11099;41.564;23.296;2022-10-16T04:02:58;60703.47;;;-143.80;100.00
21869;BME280;11099;41.564;23.296;2022-10-16T04:05:32;60703.47;;;-143.80;100.00
21869;BME280;11099;41.564;23.296;2022-10-16T04:08:23;60703.47;;;-143.80;100.00
21869;BME280;11099;41.564;23.296;2022-10-16T04:10:55;60703.47;;;-143.80;100.00
21869;BME280;11099;41.564;23.296;2022-10-16T04:13:51;60703.47;;;-143.80;100.00
21869;BME280;11099;41.564;23.296;2022-10-16T04:16:32;60703.47;;;-143.80;100.00
21869;BME280;11099;41.564;23.296;2022-10-16T04:19:05;60703.47;;;-143.80;100.00
21869;BME280;11099;41.564;23.296;2022-10-16T04:21:34;60703.47;;;-143.80;100.00
21869;BME280;11099;41.564;23.296;2022-10-16T04:24:15;60703.47;;;-143.80;100.00
21869;BME280;11099;41.564;23.296;2022-10-16T04:26:48;60703.47;;;-143.80;100.00
21869;BME280;11099;41.564;23.296;2022-10-16T04:29:21;60703.47;;;-143.80;100.00
21869;BME280;11099;41.564;23.296;2022-10-16T04:32:07;60703.47;;;-143.80;100.00
21869;BME280;11099;41.564;23.296;2022-10-16T04:34:56;60703.47;;;-143.80;100.00
21869;BME280;11099;41.564;23.296;2022-10-16T04:37:48;60703.47;;;-143.80;100.00
21869;BME280;11099;41.564;23.296;2022-10-16T04:41:00;60703.47;;;-143.80;100.00
21869;BME280;11099;41.564;23.296;2022-10-16T04:43:46;60703.47;;;-143.80;100.00
21869;BME280;11099;41.564;23.296;2022-10-16T04:46:18;60703.47;;;-143.80;100.00
21869;BME280;11099;41.564;23.296;2022-10-16T04:48:54;60703.47;;;-143.80;100.00
21869;BME280;11099;41.564;23.296;2022-10-16T04:51:38;60703.47;;;-143.80;100.00
21869;BME280;11099;41.564;23.296;2022-10-16T04:54:09;60703.47;;;-143.80;100.00
21869;BME280;11099;41.564;23.296;2022-10-16T04:56:43;60703.47;;;-143.80;100.00
21869;BME280;11099;41.564;23.296;2022-10-16T04:59:20;60703.47;;;-143.80;100.00
21869;BME280;11099;41.564;23.296;2022-10-16T05:02:13;60703.47;;;-143.80;100.00
21869;BME280;11099;41.564;23.296;2022-10-16T05:04:44;60703.47;;;-143.80;100.00
21869;BME280;11099;41.564;23.296;2022-10-16T05:07:13;60703.47;;;-143.80;100.00
21869;BME280;11099;41.564;23.296;2022-10-16T05:09:42;60703.47;;;-143.80;100.00
21869;BME280;11099;41.564;23.296;2022-10-16T05:12:16;60703.47;;;-143.80;100.00
21869;BME280;11099;41.564;23.296;2022-10-16T05:14:54;60703.47;;;-143.80;100.00
21869;BME280;11099;41.564;23.296;2022-10-16T05:17:35;60703.47;;;-143.80;100.00
21869;BME280;11099;41.564;23.296;2022-10-16T05:20:28;60703.47;;;-143.80;100.00
21869;BME280;11099;41.564;23.296;2022-10-16T05:23:40;60703.47;;;-143.80;100.00
21869;BME280;11099;41.564;23.296;2022-10-16T05:26:17;60703.47;;;-143.80;100.00
21869;BME280;11099;41.564;23.296;2022-10-16T05:28:56;98296.03;;;11.69;nan
21869;BME280;11099;41.564;23.296;2022-10-16T05:37:02;98306.66;;;13.07;nan
21869;BME280;11099;41.564;23.296;2022-10-16T05:40:14;98309.75;;;13.90;nan
21869;BME280;11099;41.564;23.296;2022-10-16T05:43:03;98302.47;;;14.53;nan
21869;BME280;11099;41.564;23.296;2022-10-16T05:54:56;98322.41;;;13.44;nan
21869;BME280;11099;41.564;23.296;2022-10-16T05:57:35;98347.09;;;14.66;nan
21869;BME280;11099;41.564;23.296;2022-10-16T09:13:55;98467.19;;;20.98;nan
21869;BME280;11099;41.564;23.296;2022-10-16T09:16:28;98477.06;;;20.74;nan
21869;BME280;11099;41.564;23.296;2022-10-16T09:21:49;98423.75;;;20.59;nan
21869;BME280;11099;41.564;23.296;2022-10-16T09:24:18;98404.75;;;19.56;nan
21869;BME280;11099;41.564;23.296;2022-10-16T09:26:46;98440.75;;;20.44;nan
21869;BME280;11099;41.564;23.296;2022-10-16T09:29:17;98430.81;;;20.64;nan
21869;BME280;11099;41.564;23.296;2022-10-16T09:31:45;98385.34;;;20.69;nan
21869;BME280;11099;41.564;23.296;2022-10-16T09:34:24;98431.84;;;20.75;nan
21869;BME280;11099;41.564;23.296;2022-10-16T09:36:52;98409.78;;;20.57;nan
21869;BME280;11099;41.564;23.296;2022-10-16T09:59:47;98388.13;;;20.73;nan
21869;BME280;11099;41.564;23.296;2022-10-16T10:04:56;98374.09;;;20.51;nan
21869;BME280;11099;41.564;23.296;2022-10-16T10:12:41;98354.19;;;21.11;nan
21869;BME280;11099;41.564;23.296;2022-10-16T10:23:31;98416.66;;;20.86;nan
21869;BME280;11099;41.564;23.296;2022-10-16T10:37:29;98368.34;;;21.39;nan
21869;BME280;11099;41.564;23.296;2022-10-16T10:46:03;98339.28;;;21.59;nan
21869;BME280;11099;41.564;23.296;2022-10-16T11:00:40;98362.81;;;21.94;nan
21869;BME280;11099;41.564;23.296;2022-10-16T11:06:05;98359.94;;;22.29;nan
21869;BME280;11099;41.564;23.296;2022-10-16T11:08:36;98287.66;;;21.48;nan
21869;BME280;11099;41.564;23.296;2022-10-16T11:14:20;98303.09;;;21.48;nan
21869;BME280;11099;41.564;23.296;2022-10-16T11:17:08;98359.81;;;22.22;nan
21869;BME280;11099;41.564;23.296;2022-10-16T11:19:48;98310.91;;;22.15;nan
21869;BME280;11099;41.564;23.296;2022-10-16T11:22:42;98351.28;;;22.20;nan
21869;BME280;11099;41.564;23.296;2022-10-16T11:36:49;98342.44;;;22.03;nan
21869;BME280;11099;41.564;23.296;2022-10-16T11:39:24;98278.16;;;21.19;nan
21869;BME280;11099;41.564;23.296;2022-10-16T11:47:27;98331.44;;;22.39;nan
21869;BME280;11099;41.564;23.296;2022-10-16T11:50:04;98297.09;;;22.23;nan
21869;BME280;11099;41.564;23.296;2022-10-16T11:52:48;98257.06;;;21.94;nan
21869;BME280;11099;41.564;23.296;2022-10-16T11:55:21;98254.78;;;22.19;nan
21869;BME280;11099;41.564;23.296;2022-10-16T11:57:54;98317.91;;;22.69;nan
21869;BME280;11099;41.564;23.296;2022-10-16T12:03:12;98317.59;;;22.74;nan
21869;BME280;11099;41.564;23.296;2022-10-16T12:06:02;98330.19;;;22.59;nan
21869;BME280;11099;41.564;23.296;2022-10-16T12:08:30;98287.63;;;22.14;nan
21869;BME280;11099;41.564;23.296;2022-10-16T12:17:25;98267.88;;;22.13;nan
21869;BME280;11099;41.564;23.296;2022-10-16T12:20:18;98274.72;;;22.07;nan
21869;BME280;11099;41.564;23.296;2022-10-16T12:23:19;98255.31;;;22.28;nan
21869;BME280;11099;41.564;23.296;2022-10-16T12:25:54;98273.72;;;22.15;nan
21869;BME280;11099;41.564;23.296;2022-10-16T12:28:22;98264.00;;;21.91;nan
21869;BME280;11099;41.564;23.296;2022-10-16T12:31:00;98268.88;;;22.05;nan
21869;BME280;11099;41.564;23.296;2022-10-16T12:33:34;98296.63;;;22.44;nan
21869;BME280;11099;41.564;23.296;2022-10-16T12:36:03;98285.09;;;22.51;nan
21869;BME280;11099;41.564;23.296;2022-10-16T12:38:44;98238.78;;;21.87;nan
21869;BME280;11099;41.564;23.296;2022-10-16T12:41:11;98282.66;;;21.96;nan
21869;BME280;11099;41.564;23.296;2022-10-16T12:46:43;98260.38;;;21.83;nan
21869;BME280;11099;41.564;23.296;2022-10-16T12:51:37;98274.53;;;22.19;nan
21869;BME280;11099;41.564;23.296;2022-10-16T12:57:07;98316.97;;;22.57;nan
21869;BME280;11099;41.564;23.296;2022-10-16T13:33:34;98281.44;;;22.40;nan
21869;BME280;11099;41.564;23.296;2022-10-16T13:36:01;98266.94;;;22.05;nan
21869;BME280;11099;41.564;23.296;2022-10-16T13:38:29;98314.97;;;22.28;nan
21869;BME280;11099;41.564;23.296;2022-10-16T13:41:05;98278.16;;;22.04;nan
21869;BME280;11099;41.564;23.296;2022-10-16T13:43:36;98326.97;;;22.27;nan
21869;BME280;11099;41.564;23.296;2022-10-16T13:46:11;98290.19;;;22.06;nan
21869;BME280;11099;41.564;23.296;2022-10-16T13:48:37;98293.81;;;22.37;nan
21869;BME280;11099;41.564;23.296;2022-10-16T13:53:35;98305.84;;;22.40;nan
21869;BME280;11099;41.564;23.296;2022-10-16T13:56:05;98307.31;;;22.33;nan
21869;BME280;11099;41.564;23.296;2022-10-16T13:58:32;98333.91;;;22.47;nan
21869;BME280;11099;41.564;23.296;2022-10-16T14:01:02;98271.81;;;22.19;nan
21869;BME280;11099;41.564;23.296;2022-10-16T14:03:30;98306.47;;;22.29;nan
21869;BME280;11099;41.564;23.296;2022-10-16T14:06:04;98305.00;;;22.35;nan
21869;BME280;11099;41.564;23.296;2022-10-16T14:08:32;98317.44;;;22.37;nan
21869;BME280;11099;41.564;23.296;2022-10-16T14:11:00;98333.78;;;22.67;nan
21869;BME280;11099;41.564;23.296;2022-10-16T14:13:37;98339.81;;;22.53;nan
21869;BME280;11099;41.564;23.296;2022-10-16T14:16:11;98273.28;;;21.90;nan
21869;BME280;11099;41.564;23.296;2022-10-16T14:18:51;98320.81;;;22.07;nan
21869;BME280;11099;41.564;23.296;2022-10-16T14:21:20;98333.69;;;22.10;nan
21869;BME280;11099;41.564;23.296;2022-10-16T14:23:46;98307.69;;;22.09;nan
21869;BME280;11099;41.564;23.296;2022-10-16T14:26:14;98308.44;;;21.87;nan
21869;BME280;11099;41.564;23.296;2022-10-16T14:28:41;98336.81;;;22.12;nan
21869;BME280;11099;41.564;23.296;2022-10-16T14:31:33;98290.59;;;21.63;nan
21869;BME280;11099;41.564;23.296;2022-10-16T14:34:01;98318.75;;;21.77;nan
21869;BME280;11099;41.564;23.296;2022-10-16T14:36:28;98354.69;;;21.74;nan
21869;BME280;11099;41.564;23.296;2022-10-16T14:41:23;98352.19;;;21.85;nan
21869;BME280;11099;41.564;23.296;2022-10-16T14:44:00;98323.84;;;21.60;nan
21869;BME280;11099;41.564;23.296;2022-10-16T14:57:50;98326.28;;;20.91;nan
21869;BME280;11099;41.564;23.296;2022-10-16T15:06:27;98347.94;;;20.91;nan
21869;BME280;11099;41.564;23.296;2022-10-16T15:08:53;98363.00;;;21.08;nan
21869;BME280;11099;41.564;23.296;2022-10-16T15:11:19;98334.81;;;20.93;nan
21869;BME280;11099;41.564;23.296;2022-10-16T15:13:46;98347.03;;;21.02;nan
21869;BME280;11099;41.564;23.296;2022-10-16T15:16:14;98372.91;;;21.19;nan
21869;BME280;11099;41.564;23.296;2022-10-16T15:18:40;98348.81;;;21.14;nan
21869;BME280;11099;41.564;23.296;2022-10-16T15:21:06;98359.19;;;21.28;nan
21869;BME280;11099;41.564;23.296;2022-10-16T15:23:31;98365.34;;;21.44;nan
21869;BME280;11099;41.564;23.296;2022-10-16T15:25:57;98371.81;;;21.59;nan
21869;BME280;11099;41.564;23.296;2022-10-16T15:28:24;98347.88;;;21.42;nan
21869;BME280;11099;41.564;23.296;2022-10-16T15:30:54;98388.88;;;21.60;nan
21869;BME280;11099;41.564;23.296;2022-10-16T15:33:26;98394.09;;;21.49;nan
21869;BME280;11099;41.564;23.296;2022-10-16T15:35:59;98385.44;;;21.08;nan
21869;BME280;11099;41.564;23.296;2022-10-16T15:38:26;98347.09;;;20.71;nan
